sensor_id;sensor_type;location;lat;lon;timestamp;P1;durP1;ratioP1;P2;durP2;ratioP2
56435;SDS011;42335;44.872;20.658;2022-11-12T00:02:06;74.85;;;47.50;;
56435;SDS011;42335;44.872;20.658;2022-11-12T00:04:32;74.15;;;44.63;;
56435;SDS011;42335;44.872;20.658;2022-11-12T00:06:57;77.90;;;45.95;;
56435;SDS011;42335;44.872;20.658;2022-11-12T00:09:23;69.85;;;44.25;;
56435;SDS011;42335;44.872;20.658;2022-11-12T00:11:49;74.55;;;45.30;;
56435;SDS011;42335;44.872;20.658;2022-11-12T00:14:14;86.70;;;47.03;;
56435;SDS011;42335;44.872;20.658;2022-11-12T00:16:40;72.25;;;44.47;;
56435;SDS011;42335;44.872;20.658;2022-11-12T00:19:05;72.63;;;45.25;;
56435;SDS011;42335;44.872;20.658;2022-11-12T00:21:31;80.57;;;43.20;;
56435;SDS011;42335;44.872;20.658;2022-11-12T00:23:57;75.05;;;43.95;;
56435;SDS011;42335;44.872;20.658;2022-11-12T00:26:23;70.72;;;44.60;;
56435;SDS011;42335;44.872;20.658;2022-11-12T00:28:48;76.60;;;44.70;;
56435;SDS011;42335;44.872;20.658;2022-11-12T00:31:14;75.35;;;45.40;;
56435;SDS011;42335;44.872;20.658;2022-11-12T00:33:41;67.78;;;43.13;;
56435;SDS011;42335;44.872;20.658;2022-11-12T00:36:08;77.10;;;45.65;;
56435;SDS011;42335;44.872;20.658;2022-11-12T00:38:34;71.00;;;43.60;;
56435;SDS011;42335;44.872;20.658;2022-11-12T00:41:00;70.30;;;44.95;;
56435;SDS011;42335;44.872;20.658;2022-11-12T00:43:26;74.93;;;45.83;;
56435;SDS011;42335;44.872;20.658;2022-11-12T00:45:51;76.90;;;43.42;;
56435;SDS011;42335;44.872;20.658;2022-11-12T00:48:17;73.25;;;44.42;;
56435;SDS011;42335;44.872;20.658;2022-11-12T00:50:43;76.93;;;43.53;;
56435;SDS011;42335;44.872;20.658;2022-11-12T00:53:08;71.50;;;43.72;;
56435;SDS011;42335;44.872;20.658;2022-11-12T00:55:34;71.88;;;44.50;;
56435;SDS011;42335;44.872;20.658;2022-11-12T00:58:00;72.25;;;42.90;;
56435;SDS011;42335;44.872;20.658;2022-11-12T01:00:26;74.85;;;43.85;;
56435;SDS011;42335;44.872;20.658;2022-11-12T01:02:52;74.13;;;43.22;;
56435;SDS011;42335;44.872;20.658;2022-11-12T01:05:18;79.25;;;45.15;;
56435;SDS011;42335;44.872;20.658;2022-11-12T01:07:44;75.43;;;45.95;;
56435;SDS011;42335;44.872;20.658;2022-11-12T01:10:10;78.18;;;45.47;;
56435;SDS011;42335;44.872;20.658;2022-11-12T01:12:36;81.97;;;45.65;;
56435;SDS011;42335;44.872;20.658;2022-11-12T01:15:03;75.93;;;46.15;;
56435;SDS011;42335;44.872;20.658;2022-11-12T01:17:30;68.13;;;44.58;;
56435;SDS011;42335;44.872;20.658;2022-11-12T01:19:55;68.82;;;42.38;;
56435;SDS011;42335;44.872;20.658;2022-11-12T01:22:21;74.28;;;43.78;;
56435;SDS011;42335;44.872;20.658;2022-11-12T01:24:47;71.22;;;42.70;;
56435;SDS011;42335;44.872;20.658;2022-11-12T01:27:13;74.45;;;44.80;;
56435;SDS011;42335;44.872;20.658;2022-11-12T01:29:39;71.35;;;43.92;;
56435;SDS011;42335;44.872;20.658;2022-11-12T01:32:05;78.25;;;44.95;;
56435;SDS011;42335;44.872;20.658;2022-11-12T01:34:31;72.47;;;45.88;;
56435;SDS011;42335;44.872;20.658;2022-11-12T01:36:57;75.97;;;43.85;;
56435;SDS011;42335;44.872;20.658;2022-11-12T01:39:22;74.55;;;43.53;;
56435;SDS011;42335;44.872;20.658;2022-11-12T01:41:49;66.53;;;42.50;;
56435;SDS011;42335;44.872;20.658;2022-11-12T01:44:18;72.97;;;44.20;;
56435;SDS011;42335;44.872;20.658;2022-11-12T01:49:15;72.53;;;44.97;;
56435;SDS011;42335;44.872;20.658;2022-11-12T01:52:14;75.95;;;47.20;;
56435;SDS011;42335;44.872;20.658;2022-11-12T01:54:54;71.40;;;43.50;;
56435;SDS011;42335;44.872;20.658;2022-11-12T01:57:26;70.18;;;45.10;;
56435;SDS011;42335;44.872;20.658;2022-11-12T01:59:57;77.97;;;45.35;;
56435;SDS011;42335;44.872;20.658;2022-11-12T02:02:26;72.90;;;44.40;;
56435;SDS011;42335;44.872;20.658;2022-11-12T02:04:52;72.70;;;44.25;;
56435;SDS011;42335;44.872;20.658;2022-11-12T02:07:19;70.63;;;44.13;;
56435;SDS011;42335;44.872;20.658;2022-11-12T02:09:47;74.32;;;45.60;;
56435;SDS011;42335;44.872;20.658;2022-11-12T02:12:13;68.10;;;43.92;;
56435;SDS011;42335;44.872;20.658;2022-11-12T02:14:58;74.68;;;45.15;;
56435;SDS011;42335;44.872;20.658;2022-11-12T02:17:24;70.40;;;45.17;;
56435;SDS011;42335;44.872;20.658;2022-11-12T02:19:51;67.65;;;42.50;;
56435;SDS011;42335;44.872;20.658;2022-11-12T02:22:17;64.78;;;41.30;;
56435;SDS011;42335;44.872;20.658;2022-11-12T02:24:42;74.22;;;43.05;;
56435;SDS011;42335;44.872;20.658;2022-11-12T02:27:08;70.80;;;43.47;;
56435;SDS011;42335;44.872;20.658;2022-11-12T02:29:35;68.40;;;44.00;;
56435;SDS011;42335;44.872;20.658;2022-11-12T02:32:10;64.50;;;42.15;;
56435;SDS011;42335;44.872;20.658;2022-11-12T02:34:36;69.72;;;43.17;;
56435;SDS011;42335;44.872;20.658;2022-11-12T02:37:03;72.63;;;43.60;;
56435;SDS011;42335;44.872;20.658;2022-11-12T02:39:29;75.85;;;45.25;;
56435;SDS011;42335;44.872;20.658;2022-11-12T02:41:55;81.40;;;46.20;;
56435;SDS011;42335;44.872;20.658;2022-11-12T02:44:21;67.93;;;41.97;;
56435;SDS011;42335;44.872;20.658;2022-11-12T02:46:46;72.78;;;44.88;;
56435;SDS011;42335;44.872;20.658;2022-11-12T02:49:12;65.35;;;44.30;;
56435;SDS011;42335;44.872;20.658;2022-11-12T02:51:38;66.55;;;43.50;;
56435;SDS011;42335;44.872;20.658;2022-11-12T02:54:04;77.72;;;44.63;;
56435;SDS011;42335;44.872;20.658;2022-11-12T02:56:29;73.30;;;43.47;;
56435;SDS011;42335;44.872;20.658;2022-11-12T02:58:55;73.60;;;45.63;;
56435;SDS011;42335;44.872;20.658;2022-11-12T03:01:21;66.57;;;43.33;;
56435;SDS011;42335;44.872;20.658;2022-11-12T03:03:47;69.03;;;44.72;;
56435;SDS011;42335;44.872;20.658;2022-11-12T03:06:12;68.68;;;43.80;;
56435;SDS011;42335;44.872;20.658;2022-11-12T03:08:38;71.45;;;47.38;;
56435;SDS011;42335;44.872;20.658;2022-11-12T03:11:07;62.65;;;43.55;;
56435;SDS011;42335;44.872;20.658;2022-11-12T03:13:35;73.35;;;45.08;;
56435;SDS011;42335;44.872;20.658;2022-11-12T03:16:01;60.90;;;44.15;;
56435;SDS011;42335;44.872;20.658;2022-11-12T03:18:26;66.78;;;45.72;;
56435;SDS011;42335;44.872;20.658;2022-11-12T03:20:52;65.70;;;44.97;;
56435;SDS011;42335;44.872;20.658;2022-11-12T03:23:18;67.55;;;44.67;;
56435;SDS011;42335;44.872;20.658;2022-11-12T03:25:44;69.15;;;45.22;;
56435;SDS011;42335;44.872;20.658;2022-11-12T03:28:13;73.60;;;47.20;;
56435;SDS011;42335;44.872;20.658;2022-11-12T03:30:41;73.78;;;46.45;;
56435;SDS011;42335;44.872;20.658;2022-11-12T03:33:08;70.78;;;46.45;;
56435;SDS011;42335;44.872;20.658;2022-11-12T03:35:35;71.07;;;44.67;;
56435;SDS011;42335;44.872;20.658;2022-11-12T03:38:01;70.38;;;45.50;;
56435;SDS011;42335;44.872;20.658;2022-11-12T03:40:28;75.05;;;44.53;;
56435;SDS011;42335;44.872;20.658;2022-11-12T03:42:54;68.65;;;44.88;;
56435;SDS011;42335;44.872;20.658;2022-11-12T03:45:21;71.65;;;45.50;;
56435;SDS011;42335;44.872;20.658;2022-11-12T03:47:49;67.63;;;43.60;;
56435;SDS011;42335;44.872;20.658;2022-11-12T03:50:17;73.15;;;45.38;;
56435;SDS011;42335;44.872;20.658;2022-11-12T03:52:45;71.15;;;46.10;;
56435;SDS011;42335;44.872;20.658;2022-11-12T03:55:13;80.00;;;49.10;;
56435;SDS011;42335;44.872;20.658;2022-11-12T03:57:39;75.85;;;46.88;;
56435;SDS011;42335;44.872;20.658;2022-11-12T04:00:06;72.55;;;46.70;;
56435;SDS011;42335;44.872;20.658;2022-11-12T04:02:33;71.30;;;48.88;;
56435;SDS011;42335;44.872;20.658;2022-11-12T04:04:59;71.50;;;47.50;;
56435;SDS011;42335;44.872;20.658;2022-11-12T04:07:43;76.00;;;47.63;;
56435;SDS011;42335;44.872;20.658;2022-11-12T04:10:27;74.22;;;46.00;;
56435;SDS011;42335;44.872;20.658;2022-11-12T04:12:56;68.20;;;43.78;;
56435;SDS011;42335;44.872;20.658;2022-11-12T04:15:40;66.65;;;44.90;;
56435;SDS011;42335;44.872;20.658;2022-11-12T04:18:05;74.20;;;44.17;;
56435;SDS011;42335;44.872;20.658;2022-11-12T04:20:49;72.55;;;44.78;;
56435;SDS011;42335;44.872;20.658;2022-11-12T04:23:33;69.93;;;45.15;;
56435;SDS011;42335;44.872;20.658;2022-11-12T04:25:59;74.28;;;47.33;;
56435;SDS011;42335;44.872;20.658;2022-11-12T04:28:44;67.22;;;44.35;;
56435;SDS011;42335;44.872;20.658;2022-11-12T04:31:29;74.47;;;45.83;;
56435;SDS011;42335;44.872;20.658;2022-11-12T04:33:55;66.57;;;44.85;;
56435;SDS011;42335;44.872;20.658;2022-11-12T04:36:41;66.47;;;44.67;;
56435;SDS011;42335;44.872;20.658;2022-11-12T04:39:06;65.07;;;42.60;;
56435;SDS011;42335;44.872;20.658;2022-11-12T04:41:32;66.90;;;41.72;;
56435;SDS011;42335;44.872;20.658;2022-11-12T04:44:16;64.03;;;42.05;;
56435;SDS011;42335;44.872;20.658;2022-11-12T04:49:27;65.07;;;42.53;;
56435;SDS011;42335;44.872;20.658;2022-11-12T04:51:53;70.00;;;45.15;;
56435;SDS011;42335;44.872;20.658;2022-11-12T04:54:30;78.38;;;49.20;;
56435;SDS011;42335;44.872;20.658;2022-11-12T04:56:56;71.28;;;45.85;;
56435;SDS011;42335;44.872;20.658;2022-11-12T04:59:22;75.10;;;45.67;;
56435;SDS011;42335;44.872;20.658;2022-11-12T05:01:48;77.22;;;47.80;;
56435;SDS011;42335;44.872;20.658;2022-11-12T05:04:14;70.63;;;43.45;;
56435;SDS011;42335;44.872;20.658;2022-11-12T05:06:39;71.93;;;44.65;;
56435;SDS011;42335;44.872;20.658;2022-11-12T05:09:21;67.63;;;44.10;;
56435;SDS011;42335;44.872;20.658;2022-11-12T05:11:48;69.97;;;46.58;;
56435;SDS011;42335;44.872;20.658;2022-11-12T05:14:14;67.63;;;43.97;;
56435;SDS011;42335;44.872;20.658;2022-11-12T05:16:40;70.97;;;46.50;;
56435;SDS011;42335;44.872;20.658;2022-11-12T05:19:06;74.38;;;46.03;;
56435;SDS011;42335;44.872;20.658;2022-11-12T05:21:31;75.55;;;48.08;;
56435;SDS011;42335;44.872;20.658;2022-11-12T05:26:41;69.97;;;44.78;;
56435;SDS011;42335;44.872;20.658;2022-11-12T05:29:07;69.00;;;45.25;;
56435;SDS011;42335;44.872;20.658;2022-11-12T05:31:33;70.10;;;45.58;;
56435;SDS011;42335;44.872;20.658;2022-11-12T05:33:58;72.03;;;44.92;;
56435;SDS011;42335;44.872;20.658;2022-11-12T05:36:24;69.43;;;45.50;;
56435;SDS011;42335;44.872;20.658;2022-11-12T05:38:50;70.68;;;45.42;;
56435;SDS011;42335;44.872;20.658;2022-11-12T05:41:16;79.55;;;47.90;;
56435;SDS011;42335;44.872;20.658;2022-11-12T05:43:42;71.07;;;45.53;;
56435;SDS011;42335;44.872;20.658;2022-11-12T05:46:07;73.07;;;47.10;;
56435;SDS011;42335;44.872;20.658;2022-11-12T05:48:33;68.43;;;44.92;;
56435;SDS011;42335;44.872;20.658;2022-11-12T05:50:59;66.72;;;43.70;;
56435;SDS011;42335;44.872;20.658;2022-11-12T05:53:24;77.95;;;46.83;;
56435;SDS011;42335;44.872;20.658;2022-11-12T05:55:50;73.82;;;46.15;;
56435;SDS011;42335;44.872;20.658;2022-11-12T05:58:16;69.68;;;46.50;;
56435;SDS011;42335;44.872;20.658;2022-11-12T06:00:42;85.03;;;44.13;;
56435;SDS011;42335;44.872;20.658;2022-11-12T06:03:08;71.20;;;45.92;;
56435;SDS011;42335;44.872;20.658;2022-11-12T06:05:35;73.53;;;45.45;;
56435;SDS011;42335;44.872;20.658;2022-11-12T06:08:01;69.40;;;47.30;;
56435;SDS011;42335;44.872;20.658;2022-11-12T06:10:29;66.03;;;43.70;;
56435;SDS011;42335;44.872;20.658;2022-11-12T06:12:55;75.07;;;45.67;;
56435;SDS011;42335;44.872;20.658;2022-11-12T06:15:21;77.32;;;47.10;;
56435;SDS011;42335;44.872;20.658;2022-11-12T06:17:49;75.05;;;46.25;;
56435;SDS011;42335;44.872;20.658;2022-11-12T06:20:14;75.68;;;45.85;;
56435;SDS011;42335;44.872;20.658;2022-11-12T06:22:40;76.07;;;48.33;;
56435;SDS011;42335;44.872;20.658;2022-11-12T06:25:06;74.07;;;47.50;;
56435;SDS011;42335;44.872;20.658;2022-11-12T06:27:31;71.63;;;47.60;;
56435;SDS011;42335;44.872;20.658;2022-11-12T06:29:57;76.90;;;47.30;;
56435;SDS011;42335;44.872;20.658;2022-11-12T06:32:23;78.55;;;47.47;;
56435;SDS011;42335;44.872;20.658;2022-11-12T06:34:49;86.45;;;48.72;;
56435;SDS011;42335;44.872;20.658;2022-11-12T06:37:16;76.95;;;49.03;;
56435;SDS011;42335;44.872;20.658;2022-11-12T06:39:42;78.22;;;48.05;;
56435;SDS011;42335;44.872;20.658;2022-11-12T06:42:08;78.72;;;48.00;;
56435;SDS011;42335;44.872;20.658;2022-11-12T06:44:33;76.60;;;48.35;;
56435;SDS011;42335;44.872;20.658;2022-11-12T06:47:00;77.20;;;49.55;;
56435;SDS011;42335;44.872;20.658;2022-11-12T06:49:26;77.03;;;48.25;;
56435;SDS011;42335;44.872;20.658;2022-11-12T06:51:52;75.78;;;49.40;;
56435;SDS011;42335;44.872;20.658;2022-11-12T06:54:17;75.95;;;47.10;;
56435;SDS011;42335;44.872;20.658;2022-11-12T06:56:43;79.68;;;47.92;;
56435;SDS011;42335;44.872;20.658;2022-11-12T06:59:09;71.22;;;46.65;;
56435;SDS011;42335;44.872;20.658;2022-11-12T07:01:35;74.13;;;48.45;;
56435;SDS011;42335;44.872;20.658;2022-11-12T07:04:01;83.93;;;49.88;;
56435;SDS011;42335;44.872;20.658;2022-11-12T07:06:26;75.53;;;47.85;;
56435;SDS011;42335;44.872;20.658;2022-11-12T07:08:52;69.43;;;45.38;;
56435;SDS011;42335;44.872;20.658;2022-11-12T07:11:18;61.00;;;40.58;;
56435;SDS011;42335;44.872;20.658;2022-11-12T07:13:44;74.35;;;39.78;;
56435;SDS011;42335;44.872;20.658;2022-11-12T07:16:11;62.78;;;35.65;;
56435;SDS011;42335;44.872;20.658;2022-11-12T07:18:38;57.25;;;33.42;;
56435;SDS011;42335;44.872;20.658;2022-11-12T07:21:07;48.20;;;32.33;;
56435;SDS011;42335;44.872;20.658;2022-11-12T07:23:35;46.97;;;29.25;;
56435;SDS011;42335;44.872;20.658;2022-11-12T07:28:31;40.97;;;28.33;;
56435;SDS011;42335;44.872;20.658;2022-11-12T07:30:58;41.58;;;30.08;;
56435;SDS011;42335;44.872;20.658;2022-11-12T07:33:34;39.25;;;27.27;;
56435;SDS011;42335;44.872;20.658;2022-11-12T07:38:26;36.58;;;25.85;;
56435;SDS011;42335;44.872;20.658;2022-11-12T07:41:04;36.05;;;27.23;;
56435;SDS011;42335;44.872;20.658;2022-11-12T07:43:33;37.92;;;26.08;;
56435;SDS011;42335;44.872;20.658;2022-11-12T07:46:02;37.13;;;24.48;;
56435;SDS011;42335;44.872;20.658;2022-11-12T07:48:35;45.60;;;24.63;;
56435;SDS011;42335;44.872;20.658;2022-11-12T07:51:03;32.83;;;24.25;;
56435;SDS011;42335;44.872;20.658;2022-11-12T07:53:39;36.38;;;24.33;;
56435;SDS011;42335;44.872;20.658;2022-11-12T07:56:05;40.20;;;26.52;;
56435;SDS011;42335;44.872;20.658;2022-11-12T07:58:32;38.00;;;25.70;;
56435;SDS011;42335;44.872;20.658;2022-11-12T08:01:05;45.00;;;30.20;;
56435;SDS011;42335;44.872;20.658;2022-11-12T08:03:45;42.28;;;30.67;;
56435;SDS011;42335;44.872;20.658;2022-11-12T08:06:11;45.90;;;33.83;;
56435;SDS011;42335;44.872;20.658;2022-11-12T08:08:37;45.13;;;31.70;;
56435;SDS011;42335;44.872;20.658;2022-11-12T08:11:02;54.08;;;33.13;;
56435;SDS011;42335;44.872;20.658;2022-11-12T08:13:28;45.67;;;32.83;;
56435;SDS011;42335;44.872;20.658;2022-11-12T08:15:56;45.63;;;33.63;;
56435;SDS011;42335;44.872;20.658;2022-11-12T08:18:22;47.90;;;34.72;;
56435;SDS011;42335;44.872;20.658;2022-11-12T08:20:48;44.05;;;33.70;;
56435;SDS011;42335;44.872;20.658;2022-11-12T08:23:14;47.13;;;35.90;;
56435;SDS011;42335;44.872;20.658;2022-11-12T08:25:40;48.20;;;36.83;;
56435;SDS011;42335;44.872;20.658;2022-11-12T08:28:06;53.35;;;40.03;;
56435;SDS011;42335;44.872;20.658;2022-11-12T08:30:32;56.22;;;39.35;;
56435;SDS011;42335;44.872;20.658;2022-11-12T08:32:59;51.22;;;38.78;;
56435;SDS011;42335;44.872;20.658;2022-11-12T08:35:30;57.55;;;40.13;;
56435;SDS011;42335;44.872;20.658;2022-11-12T08:38:00;61.50;;;42.95;;
56435;SDS011;42335;44.872;20.658;2022-11-12T08:40:28;52.33;;;39.33;;
56435;SDS011;42335;44.872;20.658;2022-11-12T08:42:56;52.55;;;35.83;;
56435;SDS011;42335;44.872;20.658;2022-11-12T08:45:26;51.70;;;37.38;;
56435;SDS011;42335;44.872;20.658;2022-11-12T08:48:00;46.35;;;33.55;;
56435;SDS011;42335;44.872;20.658;2022-11-12T08:50:27;46.03;;;34.25;;
56435;SDS011;42335;44.872;20.658;2022-11-12T08:52:58;42.25;;;32.58;;
56435;SDS011;42335;44.872;20.658;2022-11-12T08:55:24;42.70;;;31.55;;
56435;SDS011;42335;44.872;20.658;2022-11-12T08:57:50;40.25;;;31.38;;
56435;SDS011;42335;44.872;20.658;2022-11-12T09:00:16;41.75;;;32.13;;
56435;SDS011;42335;44.872;20.658;2022-11-12T09:02:42;41.50;;;30.80;;
56435;SDS011;42335;44.872;20.658;2022-11-12T09:05:09;39.05;;;30.35;;
56435;SDS011;42335;44.872;20.658;2022-11-12T09:07:35;39.53;;;30.67;;
56435;SDS011;42335;44.872;20.658;2022-11-12T09:10:00;46.22;;;30.23;;
56435;SDS011;42335;44.872;20.658;2022-11-12T09:12:26;37.08;;;29.40;;
56435;SDS011;42335;44.872;20.658;2022-11-12T09:14:52;39.88;;;27.95;;
56435;SDS011;42335;44.872;20.658;2022-11-12T09:17:18;39.20;;;29.58;;
56435;SDS011;42335;44.872;20.658;2022-11-12T09:19:43;38.50;;;30.00;;
56435;SDS011;42335;44.872;20.658;2022-11-12T09:22:09;37.53;;;29.80;;
56435;SDS011;42335;44.872;20.658;2022-11-12T09:24:35;39.92;;;29.83;;
56435;SDS011;42335;44.872;20.658;2022-11-12T09:27:00;35.13;;;26.65;;
56435;SDS011;42335;44.872;20.658;2022-11-12T09:29:26;38.08;;;25.65;;
56435;SDS011;42335;44.872;20.658;2022-11-12T09:31:52;31.98;;;24.00;;
56435;SDS011;42335;44.872;20.658;2022-11-12T09:34:18;33.33;;;23.27;;
56435;SDS011;42335;44.872;20.658;2022-11-12T09:36:44;32.35;;;22.60;;
56435;SDS011;42335;44.872;20.658;2022-11-12T09:39:09;29.00;;;22.98;;
56435;SDS011;42335;44.872;20.658;2022-11-12T09:41:36;26.67;;;21.67;;
56435;SDS011;42335;44.872;20.658;2022-11-12T09:44:05;28.77;;;22.33;;
56435;SDS011;42335;44.872;20.658;2022-11-12T09:46:47;30.15;;;21.23;;
56435;SDS011;42335;44.872;20.658;2022-11-12T09:49:22;24.55;;;19.83;;
56435;SDS011;42335;44.872;20.658;2022-11-12T09:52:16;25.35;;;19.77;;
56435;SDS011;42335;44.872;20.658;2022-11-12T09:54:45;24.05;;;19.77;;
56435;SDS011;42335;44.872;20.658;2022-11-12T09:57:22;28.00;;;20.35;;
56435;SDS011;42335;44.872;20.658;2022-11-12T09:59:48;28.23;;;19.88;;
56435;SDS011;42335;44.872;20.658;2022-11-12T10:02:28;30.00;;;19.20;;
56435;SDS011;42335;44.872;20.658;2022-11-12T10:08:27;20.85;;;16.55;;
56435;SDS011;42335;44.872;20.658;2022-11-12T10:24:49;23.88;;;20.17;;
56435;SDS011;42335;44.872;20.658;2022-11-12T10:27:15;28.02;;;20.92;;
56435;SDS011;42335;44.872;20.658;2022-11-12T10:32:13;31.58;;;18.98;;
56435;SDS011;42335;44.872;20.658;2022-11-12T10:34:40;21.27;;;17.02;;
56435;SDS011;42335;44.872;20.658;2022-11-12T10:37:06;22.02;;;16.52;;
56435;SDS011;42335;44.872;20.658;2022-11-12T10:39:48;23.83;;;18.08;;
56435;SDS011;42335;44.872;20.658;2022-11-12T10:42:17;25.38;;;17.35;;
56435;SDS011;42335;44.872;20.658;2022-11-12T10:44:45;22.63;;;15.80;;
56435;SDS011;42335;44.872;20.658;2022-11-12T10:47:27;27.20;;;12.68;;
56435;SDS011;42335;44.872;20.658;2022-11-12T10:50:01;19.58;;;12.70;;
56435;SDS011;42335;44.872;20.658;2022-11-12T10:52:26;16.05;;;12.65;;
56435;SDS011;42335;44.872;20.658;2022-11-12T10:55:03;19.20;;;13.68;;
56435;SDS011;42335;44.872;20.658;2022-11-12T10:57:44;17.85;;;14.10;;
56435;SDS011;42335;44.872;20.658;2022-11-12T11:02:48;16.55;;;11.95;;
56435;SDS011;42335;44.872;20.658;2022-11-12T11:05:59;20.35;;;11.07;;
56435;SDS011;42335;44.872;20.658;2022-11-12T11:08:36;17.98;;;11.77;;
56435;SDS011;42335;44.872;20.658;2022-11-12T11:13:40;15.73;;;11.00;;
56435;SDS011;42335;44.872;20.658;2022-11-12T11:16:07;12.77;;;9.70;;
56435;SDS011;42335;44.872;20.658;2022-11-12T11:18:37;15.80;;;9.77;;
56435;SDS011;42335;44.872;20.658;2022-11-12T11:21:07;16.38;;;8.95;;
56435;SDS011;42335;44.872;20.658;2022-11-12T11:34:56;15.27;;;9.70;;
56435;SDS011;42335;44.872;20.658;2022-11-12T11:37:26;16.90;;;9.90;;
56435;SDS011;42335;44.872;20.658;2022-11-12T11:39:59;11.93;;;9.13;;
56435;SDS011;42335;44.872;20.658;2022-11-12T11:42:39;13.52;;;9.50;;
56435;SDS011;42335;44.872;20.658;2022-11-12T11:50:45;11.77;;;8.73;;
56435;SDS011;42335;44.872;20.658;2022-11-12T11:53:38;18.88;;;10.45;;
56435;SDS011;42335;44.872;20.658;2022-11-12T11:56:22;17.65;;;10.98;;
56435;SDS011;42335;44.872;20.658;2022-11-12T12:04:35;16.95;;;12.00;;
56435;SDS011;42335;44.872;20.658;2022-11-12T12:07:24;15.02;;;11.73;;
56435;SDS011;42335;44.872;20.658;2022-11-12T12:12:44;18.23;;;13.15;;
56435;SDS011;42335;44.872;20.658;2022-11-12T12:18:16;20.80;;;12.45;;
56435;SDS011;42335;44.872;20.658;2022-11-12T12:26:39;15.50;;;10.98;;
56435;SDS011;42335;44.872;20.658;2022-11-12T12:29:11;14.73;;;8.90;;
56435;SDS011;42335;44.872;20.658;2022-11-12T12:34:38;16.02;;;8.80;;
56435;SDS011;42335;44.872;20.658;2022-11-12T12:37:13;12.35;;;9.25;;
56435;SDS011;42335;44.872;20.658;2022-11-12T12:40:02;12.10;;;8.95;;
56435;SDS011;42335;44.872;20.658;2022-11-12T12:42:47;11.93;;;9.40;;
56435;SDS011;42335;44.872;20.658;2022-11-12T12:48:07;14.23;;;10.55;;
56435;SDS011;42335;44.872;20.658;2022-11-12T12:50:55;20.55;;;9.82;;
56435;SDS011;42335;44.872;20.658;2022-11-12T12:55:58;15.32;;;9.85;;
56435;SDS011;42335;44.872;20.658;2022-11-12T13:03:56;11.07;;;8.80;;
56435;SDS011;42335;44.872;20.658;2022-11-12T13:19:33;15.75;;;9.27;;
56435;SDS011;42335;44.872;20.658;2022-11-12T13:40:38;16.63;;;6.82;;
56435;SDS011;42335;44.872;20.658;2022-11-12T13:49:02;10.88;;;6.95;;
56435;SDS011;42335;44.872;20.658;2022-11-12T13:51:41;11.30;;;8.30;;
56435;SDS011;42335;44.872;20.658;2022-11-12T13:57:11;13.55;;;8.55;;
56435;SDS011;42335;44.872;20.658;2022-11-12T14:00:05;13.77;;;8.32;;
56435;SDS011;42335;44.872;20.658;2022-11-12T14:02:40;12.57;;;8.45;;
56435;SDS011;42335;44.872;20.658;2022-11-12T14:05:18;13.27;;;9.18;;
56435;SDS011;42335;44.872;20.658;2022-11-12T14:21:32;14.85;;;10.50;;
56435;SDS011;42335;44.872;20.658;2022-11-12T14:24:02;17.70;;;10.77;;
56435;SDS011;42335;44.872;20.658;2022-11-12T14:27:01;13.02;;;9.65;;
56435;SDS011;42335;44.872;20.658;2022-11-12T14:29:20;22.42;;;10.23;;
56435;SDS011;42335;44.872;20.658;2022-11-12T14:31:46;16.52;;;9.77;;
56435;SDS011;42335;44.872;20.658;2022-11-12T14:34:25;16.77;;;10.15;;
56435;SDS011;42335;44.872;20.658;2022-11-12T14:36:52;15.55;;;8.70;;
56435;SDS011;42335;44.872;20.658;2022-11-12T14:39:20;17.98;;;8.88;;
56435;SDS011;42335;44.872;20.658;2022-11-12T14:41:51;15.07;;;9.10;;
56435;SDS011;42335;44.872;20.658;2022-11-12T14:44:19;17.75;;;9.77;;
56435;SDS011;42335;44.872;20.658;2022-11-12T14:46:53;16.20;;;9.45;;
56435;SDS011;42335;44.872;20.658;2022-11-12T14:55:03;25.00;;;9.52;;
56435;SDS011;42335;44.872;20.658;2022-11-12T14:57:34;14.88;;;8.57;;
56435;SDS011;42335;44.872;20.658;2022-11-12T15:00:00;15.10;;;8.95;;
56435;SDS011;42335;44.872;20.658;2022-11-12T15:02:43;17.13;;;9.10;;
56435;SDS011;42335;44.872;20.658;2022-11-12T15:05:19;19.40;;;9.02;;
56435;SDS011;42335;44.872;20.658;2022-11-12T15:13:01;12.68;;;8.60;;
56435;SDS011;42335;44.872;20.658;2022-11-12T15:15:27;14.15;;;9.15;;
56435;SDS011;42335;44.872;20.658;2022-11-12T15:18:06;21.67;;;11.15;;
56435;SDS011;42335;44.872;20.658;2022-11-12T15:20:39;23.90;;;13.05;;
56435;SDS011;42335;44.872;20.658;2022-11-12T15:23:13;26.10;;;12.57;;
56435;SDS011;42335;44.872;20.658;2022-11-12T15:25:43;31.20;;;17.15;;
56435;SDS011;42335;44.872;20.658;2022-11-12T15:28:21;19.60;;;11.68;;
56435;SDS011;42335;44.872;20.658;2022-11-12T15:30:58;15.18;;;9.80;;
56435;SDS011;42335;44.872;20.658;2022-11-12T15:33:44;19.27;;;10.10;;
56435;SDS011;42335;44.872;20.658;2022-11-12T15:36:14;31.40;;;8.77;;
56435;SDS011;42335;44.872;20.658;2022-11-12T15:38:45;15.88;;;9.68;;
56435;SDS011;42335;44.872;20.658;2022-11-12T15:41:24;17.40;;;11.02;;
56435;SDS011;42335;44.872;20.658;2022-11-12T15:43:53;32.63;;;11.82;;
56435;SDS011;42335;44.872;20.658;2022-11-12T15:46:19;17.58;;;12.18;;
56435;SDS011;42335;44.872;20.658;2022-11-12T15:48:45;25.60;;;14.35;;
56435;SDS011;42335;44.872;20.658;2022-11-12T15:51:11;35.85;;;22.00;;
56435;SDS011;42335;44.872;20.658;2022-11-12T15:53:39;53.42;;;28.25;;
56435;SDS011;42335;44.872;20.658;2022-11-12T15:56:07;57.70;;;33.10;;
56435;SDS011;42335;44.872;20.658;2022-11-12T15:58:36;61.03;;;31.40;;
56435;SDS011;42335;44.872;20.658;2022-11-12T16:01:04;54.05;;;30.70;;
56435;SDS011;42335;44.872;20.658;2022-11-12T16:03:30;67.10;;;36.78;;
56435;SDS011;42335;44.872;20.658;2022-11-12T16:05:57;72.60;;;39.88;;
56435;SDS011;42335;44.872;20.658;2022-11-12T16:08:23;103.20;;;50.03;;
56435;SDS011;42335;44.872;20.658;2022-11-12T16:10:48;114.53;;;58.33;;
56435;SDS011;42335;44.872;20.658;2022-11-12T16:13:30;126.88;;;60.38;;
56435;SDS011;42335;44.872;20.658;2022-11-12T16:16:00;101.45;;;49.13;;
56435;SDS011;42335;44.872;20.658;2022-11-12T16:18:30;89.47;;;42.83;;
56435;SDS011;42335;44.872;20.658;2022-11-12T16:20:56;76.45;;;35.10;;
56435;SDS011;42335;44.872;20.658;2022-11-12T16:23:21;67.88;;;32.03;;
56435;SDS011;42335;44.872;20.658;2022-11-12T16:25:47;61.35;;;27.75;;
56435;SDS011;42335;44.872;20.658;2022-11-12T16:28:14;58.25;;;30.38;;
56435;SDS011;42335;44.872;20.658;2022-11-12T16:30:41;64.50;;;32.72;;
56435;SDS011;42335;44.872;20.658;2022-11-12T16:33:09;72.00;;;37.20;;
56435;SDS011;42335;44.872;20.658;2022-11-12T16:35:36;66.22;;;32.70;;
56435;SDS011;42335;44.872;20.658;2022-11-12T16:38:02;52.72;;;30.15;;
56435;SDS011;42335;44.872;20.658;2022-11-12T16:40:28;46.03;;;26.30;;
56435;SDS011;42335;44.872;20.658;2022-11-12T16:42:55;44.17;;;23.10;;
56435;SDS011;42335;44.872;20.658;2022-11-12T16:45:24;34.67;;;19.27;;
56435;SDS011;42335;44.872;20.658;2022-11-12T16:47:56;37.17;;;18.15;;
56435;SDS011;42335;44.872;20.658;2022-11-12T16:50:23;33.30;;;19.05;;
56435;SDS011;42335;44.872;20.658;2022-11-12T16:52:51;35.22;;;16.58;;
56435;SDS011;42335;44.872;20.658;2022-11-12T16:55:17;27.75;;;15.10;;